sensor_id;sensor_type;location;lat;lon;timestamp;P1;durP1;ratioP1;P2;durP2;ratioP2
62654;SDS011;48717;55.556;37.816;2023-05-29T00:02:08;16.25;;;6.65;;
62654;SDS011;48717;55.556;37.816;2023-05-29T00:04:35;17.20;;;6.53;;
62654;SDS011;48717;55.556;37.816;2023-05-29T00:07:04;14.93;;;5.93;;
62654;SDS011;48717;55.556;37.816;2023-05-29T00:09:31;12.00;;;5.60;;
62654;SDS011;48717;55.556;37.816;2023-05-29T00:11:59;14.65;;;5.82;;
62654;SDS011;48717;55.556;37.816;2023-05-29T00:14:28;17.92;;;6.28;;
62654;SDS011;48717;55.556;37.816;2023-05-29T00:16:55;12.02;;;5.45;;
62654;SDS011;48717;55.556;37.816;2023-05-29T00:19:23;17.67;;;6.78;;
62654;SDS011;48717;55.556;37.816;2023-05-29T00:21:52;20.02;;;7.63;;
62654;SDS011;48717;55.556;37.816;2023-05-29T00:24:19;17.05;;;5.63;;
62654;SDS011;48717;55.556;37.816;2023-05-29T00:26:47;13.15;;;5.32;;
62654;SDS011;48717;55.556;37.816;2023-05-29T00:29:15;11.77;;;5.53;;
62654;SDS011;48717;55.556;37.816;2023-05-29T00:31:42;15.52;;;6.20;;
62654;SDS011;48717;55.556;37.816;2023-05-29T00:34:09;12.82;;;6.85;;
62654;SDS011;48717;55.556;37.816;2023-05-29T00:36:36;15.40;;;6.45;;
62654;SDS011;48717;55.556;37.816;2023-05-29T00:39:04;14.55;;;6.20;;
62654;SDS011;48717;55.556;37.816;2023-05-29T00:41:31;11.43;;;4.97;;
62654;SDS011;48717;55.556;37.816;2023-05-29T00:43:58;17.65;;;6.50;;
62654;SDS011;48717;55.556;37.816;2023-05-29T00:46:25;12.07;;;5.80;;
62654;SDS011;48717;55.556;37.816;2023-05-29T00:48:53;11.32;;;5.20;;
62654;SDS011;48717;55.556;37.816;2023-05-29T00:51:21;12.88;;;6.25;;
62654;SDS011;48717;55.556;37.816;2023-05-29T00:53:48;12.05;;;5.65;;
62654;SDS011;48717;55.556;37.816;2023-05-29T00:56:17;9.27;;;5.40;;
62654;SDS011;48717;55.556;37.816;2023-05-29T00:58:45;14.15;;;5.45;;
62654;SDS011;48717;55.556;37.816;2023-05-29T01:01:12;14.95;;;5.32;;
62654;SDS011;48717;55.556;37.816;2023-05-29T01:03:40;9.23;;;4.72;;
62654;SDS011;48717;55.556;37.816;2023-05-29T01:06:09;12.93;;;5.70;;
62654;SDS011;48717;55.556;37.816;2023-05-29T01:08:37;10.75;;;5.32;;
62654;SDS011;48717;55.556;37.816;2023-05-29T01:13:54;8.15;;;4.28;;
62654;SDS011;48717;55.556;37.816;2023-05-29T01:27:24;8.45;;;4.03;;
62654;SDS011;48717;55.556;37.816;2023-05-29T01:29:53;9.55;;;4.25;;
62654;SDS011;48717;55.556;37.816;2023-05-29T01:32:23;8.15;;;4.03;;
62654;SDS011;48717;55.556;37.816;2023-05-29T01:34:52;9.20;;;4.40;;
62654;SDS011;48717;55.556;37.816;2023-05-29T01:37:19;12.98;;;4.82;;
62654;SDS011;48717;55.556;37.816;2023-05-29T01:39:46;10.07;;;4.75;;
62654;SDS011;48717;55.556;37.816;2023-05-29T01:42:14;12.57;;;5.30;;
62654;SDS011;48717;55.556;37.816;2023-05-29T01:44:41;9.73;;;4.53;;
62654;SDS011;48717;55.556;37.816;2023-05-29T01:47:09;7.97;;;4.40;;
62654;SDS011;48717;55.556;37.816;2023-05-29T01:49:37;11.88;;;4.97;;
62654;SDS011;48717;55.556;37.816;2023-05-29T01:52:07;13.20;;;4.43;;
62654;SDS011;48717;55.556;37.816;2023-05-29T01:54:34;8.90;;;4.68;;
62654;SDS011;48717;55.556;37.816;2023-05-29T01:57:02;10.35;;;5.15;;
62654;SDS011;48717;55.556;37.816;2023-05-29T01:59:32;12.27;;;5.05;;
62654;SDS011;48717;55.556;37.816;2023-05-29T02:02:09;9.85;;;5.30;;
62654;SDS011;48717;55.556;37.816;2023-05-29T02:04:38;12.52;;;4.95;;
62654;SDS011;48717;55.556;37.816;2023-05-29T02:07:05;10.68;;;5.70;;
62654;SDS011;48717;55.556;37.816;2023-05-29T02:09:34;6.78;;;4.45;;
62654;SDS011;48717;55.556;37.816;2023-05-29T02:12:02;11.45;;;5.18;;
62654;SDS011;48717;55.556;37.816;2023-05-29T02:14:30;15.52;;;5.25;;
62654;SDS011;48717;55.556;37.816;2023-05-29T02:16:59;9.18;;;4.95;;
62654;SDS011;48717;55.556;37.816;2023-05-29T02:19:28;10.25;;;4.63;;
62654;SDS011;48717;55.556;37.816;2023-05-29T02:21:55;7.93;;;4.20;;
62654;SDS011;48717;55.556;37.816;2023-05-29T02:24:22;7.35;;;4.43;;
62654;SDS011;48717;55.556;37.816;2023-05-29T02:26:49;8.80;;;4.43;;
62654;SDS011;48717;55.556;37.816;2023-05-29T02:29:17;9.40;;;4.35;;
62654;SDS011;48717;55.556;37.816;2023-05-29T02:31:45;7.63;;;3.78;;
62654;SDS011;48717;55.556;37.816;2023-05-29T02:34:12;13.73;;;4.32;;
62654;SDS011;48717;55.556;37.816;2023-05-29T02:36:41;14.98;;;4.75;;
62654;SDS011;48717;55.556;37.816;2023-05-29T02:39:08;8.50;;;4.25;;
62654;SDS011;48717;55.556;37.816;2023-05-29T02:41:38;11.35;;;4.10;;
62654;SDS011;48717;55.556;37.816;2023-05-29T02:44:05;10.77;;;4.60;;
62654;SDS011;48717;55.556;37.816;2023-05-29T02:46:32;8.93;;;4.15;;
62654;SDS011;48717;55.556;37.816;2023-05-29T02:49:00;9.23;;;4.35;;
62654;SDS011;48717;55.556;37.816;2023-05-29T02:51:27;9.68;;;4.50;;
62654;SDS011;48717;55.556;37.816;2023-05-29T02:53:54;13.38;;;4.85;;
62654;SDS011;48717;55.556;37.816;2023-05-29T02:56:22;9.20;;;4.72;;
62654;SDS011;48717;55.556;37.816;2023-05-29T02:58:50;9.57;;;4.78;;
62654;SDS011;48717;55.556;37.816;2023-05-29T03:01:18;13.55;;;5.05;;
62654;SDS011;48717;55.556;37.816;2023-05-29T03:03:45;11.95;;;4.47;;
62654;SDS011;48717;55.556;37.816;2023-05-29T03:06:12;10.30;;;5.05;;
62654;SDS011;48717;55.556;37.816;2023-05-29T03:08:39;15.68;;;5.38;;
62654;SDS011;48717;55.556;37.816;2023-05-29T03:11:07;11.13;;;5.60;;
62654;SDS011;48717;55.556;37.816;2023-05-29T03:13:37;10.95;;;5.60;;
62654;SDS011;48717;55.556;37.816;2023-05-29T03:18:36;7.90;;;4.90;;
62654;SDS011;48717;55.556;37.816;2023-05-29T03:21:03;9.05;;;5.28;;
62654;SDS011;48717;55.556;37.816;2023-05-29T03:23:33;10.45;;;5.07;;
62654;SDS011;48717;55.556;37.816;2023-05-29T03:26:01;12.40;;;5.15;;
62654;SDS011;48717;55.556;37.816;2023-05-29T03:28:31;10.98;;;4.93;;
62654;SDS011;48717;55.556;37.816;2023-05-29T03:31:01;10.82;;;4.72;;
62654;SDS011;48717;55.556;37.816;2023-05-29T03:33:29;19.30;;;5.20;;
62654;SDS011;48717;55.556;37.816;2023-05-29T03:36:03;19.50;;;10.13;;
62654;SDS011;48717;55.556;37.816;2023-05-29T03:38:31;12.85;;;6.10;;
62654;SDS011;48717;55.556;37.816;2023-05-29T03:40:59;14.43;;;5.50;;
62654;SDS011;48717;55.556;37.816;2023-05-29T03:43:27;21.95;;;12.55;;
62654;SDS011;48717;55.556;37.816;2023-05-29T03:45:54;12.93;;;4.65;;
62654;SDS011;48717;55.556;37.816;2023-05-29T03:48:23;9.48;;;4.28;;
62654;SDS011;48717;55.556;37.816;2023-05-29T03:50:51;11.90;;;4.28;;
62654;SDS011;48717;55.556;37.816;2023-05-29T03:53:25;11.40;;;4.38;;
62654;SDS011;48717;55.556;37.816;2023-05-29T03:55:53;7.72;;;4.13;;
62654;SDS011;48717;55.556;37.816;2023-05-29T03:58:21;12.45;;;4.28;;
62654;SDS011;48717;55.556;37.816;2023-05-29T04:00:48;11.25;;;3.97;;
62654;SDS011;48717;55.556;37.816;2023-05-29T04:05:46;9.23;;;3.30;;
62654;SDS011;48717;55.556;37.816;2023-05-29T04:08:13;8.48;;;3.88;;
62654;SDS011;48717;55.556;37.816;2023-05-29T04:10:42;10.73;;;3.30;;
62654;SDS011;48717;55.556;37.816;2023-05-29T04:13:10;12.07;;;4.00;;
62654;SDS011;48717;55.556;37.816;2023-05-29T04:15:38;10.93;;;3.78;;
62654;SDS011;48717;55.556;37.816;2023-05-29T04:18:05;15.13;;;4.28;;
62654;SDS011;48717;55.556;37.816;2023-05-29T04:20:33;13.10;;;4.10;;
62654;SDS011;48717;55.556;37.816;2023-05-29T04:23:00;12.15;;;3.90;;
62654;SDS011;48717;55.556;37.816;2023-05-29T04:25:27;10.95;;;3.95;;
62654;SDS011;48717;55.556;37.816;2023-05-29T04:27:54;15.65;;;4.32;;
62654;SDS011;48717;55.556;37.816;2023-05-29T04:30:22;9.90;;;3.75;;
62654;SDS011;48717;55.556;37.816;2023-05-29T04:32:49;7.32;;;2.92;;
62654;SDS011;48717;55.556;37.816;2023-05-29T04:35:20;13.00;;;3.78;;
62654;SDS011;48717;55.556;37.816;2023-05-29T04:37:57;10.25;;;3.30;;
62654;SDS011;48717;55.556;37.816;2023-05-29T04:40:28;8.45;;;2.80;;
62654;SDS011;48717;55.556;37.816;2023-05-29T04:42:56;3.55;;;1.90;;
62654;SDS011;48717;55.556;37.816;2023-05-29T04:45:32;9.90;;;2.83;;
62654;SDS011;48717;55.556;37.816;2023-05-29T04:48:00;6.00;;;1.88;;
62654;SDS011;48717;55.556;37.816;2023-05-29T04:50:28;6.25;;;1.95;;
62654;SDS011;48717;55.556;37.816;2023-05-29T04:52:57;4.32;;;2.10;;
62654;SDS011;48717;55.556;37.816;2023-05-29T04:55:25;3.90;;;1.80;;
62654;SDS011;48717;55.556;37.816;2023-05-29T04:57:53;5.90;;;2.00;;
62654;SDS011;48717;55.556;37.816;2023-05-29T05:00:20;6.85;;;1.80;;
62654;SDS011;48717;55.556;37.816;2023-05-29T05:02:49;3.10;;;1.80;;
62654;SDS011;48717;55.556;37.816;2023-05-29T05:05:17;6.35;;;1.50;;
62654;SDS011;48717;55.556;37.816;2023-05-29T05:07:44;4.82;;;2.03;;
62654;SDS011;48717;55.556;37.816;2023-05-29T05:10:30;9.88;;;1.63;;
62654;SDS011;48717;55.556;37.816;2023-05-29T05:12:58;4.55;;;1.88;;
62654;SDS011;48717;55.556;37.816;2023-05-29T05:15:26;2.00;;;1.60;;
62654;SDS011;48717;55.556;37.816;2023-05-29T05:17:53;7.70;;;1.88;;
62654;SDS011;48717;55.556;37.816;2023-05-29T05:20:20;2.33;;;1.75;;
62654;SDS011;48717;55.556;37.816;2023-05-29T05:22:54;4.78;;;1.80;;
62654;SDS011;48717;55.556;37.816;2023-05-29T05:25:22;5.20;;;1.65;;
62654;SDS011;48717;55.556;37.816;2023-05-29T05:27:49;8.23;;;2.00;;
62654;SDS011;48717;55.556;37.816;2023-05-29T05:30:19;5.95;;;1.60;;
62654;SDS011;48717;55.556;37.816;2023-05-29T05:32:48;6.60;;;1.58;;
62654;SDS011;48717;55.556;37.816;2023-05-29T05:35:15;6.95;;;1.48;;
62654;SDS011;48717;55.556;37.816;2023-05-29T05:37:43;4.05;;;1.90;;
62654;SDS011;48717;55.556;37.816;2023-05-29T05:40:11;3.33;;;1.33;;
62654;SDS011;48717;55.556;37.816;2023-05-29T05:42:49;1.73;;;1.20;;
62654;SDS011;48717;55.556;37.816;2023-05-29T05:45:22;3.20;;;1.40;;
62654;SDS011;48717;55.556;37.816;2023-05-29T05:47:49;4.97;;;1.25;;
62654;SDS011;48717;55.556;37.816;2023-05-29T05:50:21;2.17;;;1.20;;
62654;SDS011;48717;55.556;37.816;2023-05-29T05:52:49;2.83;;;1.17;;
62654;SDS011;48717;55.556;37.816;2023-05-29T05:55:17;2.80;;;1.30;;
62654;SDS011;48717;55.556;37.816;2023-05-29T05:57:45;3.95;;;1.25;;
62654;SDS011;48717;55.556;37.816;2023-05-29T06:00:13;4.20;;;1.40;;
62654;SDS011;48717;55.556;37.816;2023-05-29T06:02:43;4.38;;;1.13;;
62654;SDS011;48717;55.556;37.816;2023-05-29T06:05:20;1.15;;;1.00;;
62654;SDS011;48717;55.556;37.816;2023-05-29T06:07:48;6.38;;;1.38;;
62654;SDS011;48717;55.556;37.816;2023-05-29T06:10:15;7.45;;;1.58;;
62654;SDS011;48717;55.556;37.816;2023-05-29T06:12:46;4.78;;;1.40;;
62654;SDS011;48717;55.556;37.816;2023-05-29T06:15:20;3.35;;;1.13;;
62654;SDS011;48717;55.556;37.816;2023-05-29T06:17:48;2.15;;;1.20;;
62654;SDS011;48717;55.556;37.816;2023-05-29T06:20:18;3.80;;;1.38;;
62654;SDS011;48717;55.556;37.816;2023-05-29T06:22:46;2.22;;;0.98;;
62654;SDS011;48717;55.556;37.816;2023-05-29T06:25:18;4.88;;;1.00;;
62654;SDS011;48717;55.556;37.816;2023-05-29T06:27:46;1.48;;;1.02;;
62654;SDS011;48717;55.556;37.816;2023-05-29T06:30:15;5.47;;;1.20;;
62654;SDS011;48717;55.556;37.816;2023-05-29T06:32:42;1.27;;;1.08;;
62654;SDS011;48717;55.556;37.816;2023-05-29T06:35:09;2.35;;;0.98;;
62654;SDS011;48717;55.556;37.816;2023-05-29T06:37:38;2.88;;;1.00;;
62654;SDS011;48717;55.556;37.816;2023-05-29T06:40:05;8.02;;;1.20;;
62654;SDS011;48717;55.556;37.816;2023-05-29T06:42:33;3.00;;;1.10;;
62654;SDS011;48717;55.556;37.816;2023-05-29T06:45:08;4.38;;;1.10;;
62654;SDS011;48717;55.556;37.816;2023-05-29T06:47:35;2.53;;;1.20;;
62654;SDS011;48717;55.556;37.816;2023-05-29T06:50:03;2.35;;;1.25;;
62654;SDS011;48717;55.556;37.816;2023-05-29T06:52:30;3.83;;;0.95;;
62654;SDS011;48717;55.556;37.816;2023-05-29T06:55:16;3.10;;;0.98;;
62654;SDS011;48717;55.556;37.816;2023-05-29T06:57:43;5.05;;;1.48;;
62654;SDS011;48717;55.556;37.816;2023-05-29T07:00:11;7.20;;;1.60;;
62654;SDS011;48717;55.556;37.816;2023-05-29T07:02:47;4.82;;;1.20;;
62654;SDS011;48717;55.556;37.816;2023-05-29T07:05:15;8.38;;;2.38;;
62654;SDS011;48717;55.556;37.816;2023-05-29T07:07:42;1.83;;;1.00;;
62654;SDS011;48717;55.556;37.816;2023-05-29T07:10:11;1.53;;;1.30;;
62654;SDS011;48717;55.556;37.816;2023-05-29T07:12:38;2.75;;;1.20;;
62654;SDS011;48717;55.556;37.816;2023-05-29T07:15:05;8.23;;;1.42;;
62654;SDS011;48717;55.556;37.816;2023-05-29T07:17:33;1.58;;;1.10;;
62654;SDS011;48717;55.556;37.816;2023-05-29T07:20:10;4.47;;;1.33;;
62654;SDS011;48717;55.556;37.816;2023-05-29T07:22:38;2.03;;;1.25;;
62654;SDS011;48717;55.556;37.816;2023-05-29T07:25:06;4.65;;;1.17;;
62654;SDS011;48717;55.556;37.816;2023-05-29T07:27:34;9.25;;;1.20;;
62654;SDS011;48717;55.556;37.816;2023-05-29T07:30:02;4.85;;;1.08;;
62654;SDS011;48717;55.556;37.816;2023-05-29T07:32:35;3.08;;;1.20;;
62654;SDS011;48717;55.556;37.816;2023-05-29T07:35:03;2.25;;;1.10;;
62654;SDS011;48717;55.556;37.816;2023-05-29T07:37:32;3.40;;;1.00;;
62654;SDS011;48717;55.556;37.816;2023-05-29T07:39:59;3.42;;;1.48;;
62654;SDS011;48717;55.556;37.816;2023-05-29T07:43:05;2.50;;;1.10;;
62654;SDS011;48717;55.556;37.816;2023-05-29T07:45:55;1.98;;;1.10;;
62654;SDS011;48717;55.556;37.816;2023-05-29T07:48:23;3.03;;;1.10;;
62654;SDS011;48717;55.556;37.816;2023-05-29T07:50:51;2.53;;;1.20;;
62654;SDS011;48717;55.556;37.816;2023-05-29T07:53:19;6.43;;;1.60;;
62654;SDS011;48717;55.556;37.816;2023-05-29T07:55:47;4.38;;;1.30;;
62654;SDS011;48717;55.556;37.816;2023-05-29T07:58:15;3.15;;;1.10;;
62654;SDS011;48717;55.556;37.816;2023-05-29T08:03:37;2.10;;;1.33;;
62654;SDS011;48717;55.556;37.816;2023-05-29T08:06:26;8.43;;;1.70;;
62654;SDS011;48717;55.556;37.816;2023-05-29T08:08:56;5.38;;;1.50;;
62654;SDS011;48717;55.556;37.816;2023-05-29T08:11:25;5.93;;;1.50;;
62654;SDS011;48717;55.556;37.816;2023-05-29T08:13:52;9.40;;;3.08;;
62654;SDS011;48717;55.556;37.816;2023-05-29T08:16:19;3.75;;;1.40;;
62654;SDS011;48717;55.556;37.816;2023-05-29T08:18:49;3.58;;;1.17;;
62654;SDS011;48717;55.556;37.816;2023-05-29T08:21:16;5.30;;;1.50;;
62654;SDS011;48717;55.556;37.816;2023-05-29T08:23:43;4.80;;;1.35;;
62654;SDS011;48717;55.556;37.816;2023-05-29T08:26:10;2.38;;;1.27;;
62654;SDS011;48717;55.556;37.816;2023-05-29T08:28:39;3.17;;;1.30;;
62654;SDS011;48717;55.556;37.816;2023-05-29T08:31:08;2.22;;;1.30;;
62654;SDS011;48717;55.556;37.816;2023-05-29T08:33:35;4.55;;;1.20;;
62654;SDS011;48717;55.556;37.816;2023-05-29T08:36:03;2.08;;;1.20;;
62654;SDS011;48717;55.556;37.816;2023-05-29T08:38:30;3.33;;;1.20;;
62654;SDS011;48717;55.556;37.816;2023-05-29T08:40:58;2.85;;;1.20;;
62654;SDS011;48717;55.556;37.816;2023-05-29T08:43:28;3.88;;;1.30;;
62654;SDS011;48717;55.556;37.816;2023-05-29T08:46:01;4.40;;;1.70;;
62654;SDS011;48717;55.556;37.816;2023-05-29T08:48:31;2.75;;;1.20;;
62654;SDS011;48717;55.556;37.816;2023-05-29T08:50:59;2.65;;;1.30;;
62654;SDS011;48717;55.556;37.816;2023-05-29T08:53:29;3.00;;;1.30;;
62654;SDS011;48717;55.556;37.816;2023-05-29T08:55:58;4.20;;;1.83;;
62654;SDS011;48717;55.556;37.816;2023-05-29T08:58:25;2.00;;;1.30;;
62654;SDS011;48717;55.556;37.816;2023-05-29T09:00:53;1.48;;;0.95;;
62654;SDS011;48717;55.556;37.816;2023-05-29T09:03:22;2.58;;;1.25;;
62654;SDS011;48717;55.556;37.816;2023-05-29T09:05:49;2.00;;;1.25;;
62654;SDS011;48717;55.556;37.816;2023-05-29T09:08:17;4.35;;;1.58;;
62654;SDS011;48717;55.556;37.816;2023-05-29T09:10:48;3.70;;;1.30;;
62654;SDS011;48717;55.556;37.816;2023-05-29T09:13:17;5.40;;;1.40;;
62654;SDS011;48717;55.556;37.816;2023-05-29T09:15:45;4.03;;;1.30;;
62654;SDS011;48717;55.556;37.816;2023-05-29T09:18:13;6.93;;;1.70;;
62654;SDS011;48717;55.556;37.816;2023-05-29T09:20:40;6.18;;;1.85;;
62654;SDS011;48717;55.556;37.816;2023-05-29T09:23:08;3.08;;;1.27;;
62654;SDS011;48717;55.556;37.816;2023-05-29T09:25:40;5.28;;;1.63;;
62654;SDS011;48717;55.556;37.816;2023-05-29T09:28:10;4.47;;;1.33;;
62654;SDS011;48717;55.556;37.816;2023-05-29T09:30:41;2.92;;;1.30;;
62654;SDS011;48717;55.556;37.816;2023-05-29T09:33:10;6.53;;;1.40;;
62654;SDS011;48717;55.556;37.816;2023-05-29T09:35:39;5.65;;;1.80;;
62654;SDS011;48717;55.556;37.816;2023-05-29T09:38:15;3.58;;;1.17;;
62654;SDS011;48717;55.556;37.816;2023-05-29T09:41:03;9.07;;;2.10;;
62654;SDS011;48717;55.556;37.816;2023-05-29T09:43:31;3.05;;;1.30;;
62654;SDS011;48717;55.556;37.816;2023-05-29T09:46:01;5.63;;;1.50;;
62654;SDS011;48717;55.556;37.816;2023-05-29T09:48:29;3.05;;;1.60;;
62654;SDS011;48717;55.556;37.816;2023-05-29T09:50:57;5.88;;;2.00;;
62654;SDS011;48717;55.556;37.816;2023-05-29T09:53:28;5.57;;;1.40;;
62654;SDS011;48717;55.556;37.816;2023-05-29T09:55:56;5.85;;;1.55;;
62654;SDS011;48717;55.556;37.816;2023-05-29T09:58:27;2.90;;;1.38;;
62654;SDS011;48717;55.556;37.816;2023-05-29T10:00:55;4.25;;;1.30;;
62654;SDS011;48717;55.556;37.816;2023-05-29T10:03:25;4.47;;;1.40;;
62654;SDS011;48717;55.556;37.816;2023-05-29T10:05:54;2.67;;;1.30;;
62654;SDS011;48717;55.556;37.816;2023-05-29T10:08:24;2.30;;;1.50;;
62654;SDS011;48717;55.556;37.816;2023-05-29T10:10:59;4.85;;;1.20;;
62654;SDS011;48717;55.556;37.816;2023-05-29T10:13:36;4.90;;;1.20;;
62654;SDS011;48717;55.556;37.816;2023-05-29T10:16:08;5.35;;;1.60;;
62654;SDS011;48717;55.556;37.816;2023-05-29T10:18:43;4.65;;;1.63;;
62654;SDS011;48717;55.556;37.816;2023-05-29T10:21:17;5.60;;;1.70;;
62654;SDS011;48717;55.556;37.816;2023-05-29T10:23:46;3.47;;;1.45;;
62654;SDS011;48717;55.556;37.816;2023-05-29T10:26:20;2.50;;;1.50;;
62654;SDS011;48717;55.556;37.816;2023-05-29T10:28:50;6.57;;;1.50;;
62654;SDS011;48717;55.556;37.816;2023-05-29T10:31:28;2.85;;;1.40;;
62654;SDS011;48717;55.556;37.816;2023-05-29T10:39:45;1.52;;;1.02;;
62654;SDS011;48717;55.556;37.816;2023-05-29T10:46:00;1.52;;;1.15;;
62654;SDS011;48717;55.556;37.816;2023-05-29T10:50:38;2.10;;;1.50;;
62654;SDS011;48717;55.556;37.816;2023-05-29T10:53:08;1.80;;;1.48;;
62654;SDS011;48717;55.556;37.816;2023-05-29T10:55:53;6.30;;;3.10;;
62654;SDS011;48717;55.556;37.816;2023-05-29T10:58:21;2.20;;;1.20;;
62654;SDS011;48717;55.556;37.816;2023-05-29T11:00:55;4.85;;;1.30;;
62654;SDS011;48717;55.556;37.816;2023-05-29T11:03:25;5.10;;;1.70;;
62654;SDS011;48717;55.556;37.816;2023-05-29T11:11:29;5.47;;;2.47;;
62654;SDS011;48717;55.556;37.816;2023-05-29T11:14:01;3.03;;;1.48;;
62654;SDS011;48717;55.556;37.816;2023-05-29T11:19:03;7.63;;;2.13;;
62654;SDS011;48717;55.556;37.816;2023-05-29T11:24:14;8.02;;;1.60;;
62654;SDS011;48717;55.556;37.816;2023-05-29T11:26:53;7.05;;;1.55;;
62654;SDS011;48717;55.556;37.816;2023-05-29T11:29:22;4.28;;;1.52;;
62654;SDS011;48717;55.556;37.816;2023-05-29T11:32:04;4.53;;;1.43;;
62654;SDS011;48717;55.556;37.816;2023-05-29T11:34:35;2.80;;;1.40;;
62654;SDS011;48717;55.556;37.816;2023-05-29T11:37:07;1.75;;;1.23;;
62654;SDS011;48717;55.556;37.816;2023-05-29T11:39:37;2.28;;;1.17;;
62654;SDS011;48717;55.556;37.816;2023-05-29T11:42:05;2.63;;;1.23;;
62654;SDS011;48717;55.556;37.816;2023-05-29T11:44:33;2.22;;;1.27;;
62654;SDS011;48717;55.556;37.816;2023-05-29T11:47:04;1.30;;;1.20;;
62654;SDS011;48717;55.556;37.816;2023-05-29T11:49:34;3.03;;;1.42;;
62654;SDS011;48717;55.556;37.816;2023-05-29T11:54:43;10.57;;;1.67;;
62654;SDS011;48717;55.556;37.816;2023-05-29T11:57:19;6.38;;;1.90;;
62654;SDS011;48717;55.556;37.816;2023-05-29T11:59:51;4.97;;;1.48;;
62654;SDS011;48717;55.556;37.816;2023-05-29T12:02:25;3.97;;;1.10;;
62654;SDS011;48717;55.556;37.816;2023-05-29T12:05:03;7.55;;;1.40;;
62654;SDS011;48717;55.556;37.816;2023-05-29T12:07:33;5.10;;;1.50;;
62654;SDS011;48717;55.556;37.816;2023-05-29T12:10:14;1.60;;;1.30;;
62654;SDS011;48717;55.556;37.816;2023-05-29T12:12:46;1.80;;;1.25;;
62654;SDS011;48717;55.556;37.816;2023-05-29T12:15:15;4.03;;;1.27;;
62654;SDS011;48717;55.556;37.816;2023-05-29T12:17:44;1.80;;;1.20;;
62654;SDS011;48717;55.556;37.816;2023-05-29T12:20:13;3.42;;;1.33;;
62654;SDS011;48717;55.556;37.816;2023-05-29T12:22:42;3.47;;;1.23;;
62654;SDS011;48717;55.556;37.816;2023-05-29T12:25:19;10.27;;;1.65;;
62654;SDS011;48717;55.556;37.816;2023-05-29T12:27:47;2.03;;;1.30;;
62654;SDS011;48717;55.556;37.816;2023-05-29T12:30:22;4.90;;;1.50;;
62654;SDS011;48717;55.556;37.816;2023-05-29T12:32:59;4.03;;;1.60;;
62654;SDS011;48717;55.556;37.816;2023-05-29T12:35:28;2.30;;;1.20;;
62654;SDS011;48717;55.556;37.816;2023-05-29T12:40:27;5.50;;;1.45;;
62654;SDS011;48717;55.556;37.816;2023-05-29T12:43:00;1.50;;;1.40;;
62654;SDS011;48717;55.556;37.816;2023-05-29T12:45:31;4.85;;;1.45;;
62654;SDS011;48717;55.556;37.816;2023-05-29T12:48:00;4.50;;;1.55;;
62654;SDS011;48717;55.556;37.816;2023-05-29T12:50:30;4.18;;;1.60;;
62654;SDS011;48717;55.556;37.816;2023-05-29T12:53:12;7.78;;;1.60;;
62654;SDS011;48717;55.556;37.816;2023-05-29T12:55:41;10.25;;;1.88;;
62654;SDS011;48717;55.556;37.816;2023-05-29T12:58:14;3.28;;;1.48;;
62654;SDS011;48717;55.556;37.816;2023-05-29T13:00:47;4.93;;;1.40;;
62654;SDS011;48717;55.556;37.816;2023-05-29T13:03:14;3.28;;;1.80;;
62654;SDS011;48717;55.556;37.816;2023-05-29T13:05:42;6.55;;;1.90;;
62654;SDS011;48717;55.556;37.816;2023-05-29T13:08:09;3.85;;;1.60;;
62654;SDS011;48717;55.556;37.816;2023-05-29T13:10:36;7.53;;;1.80;;
62654;SDS011;48717;55.556;37.816;2023-05-29T13:13:04;9.15;;;2.10;;
62654;SDS011;48717;55.556;37.816;2023-05-29T13:15:31;11.88;;;2.70;;
62654;SDS011;48717;55.556;37.816;2023-05-29T13:18:00;10.18;;;2.15;;
62654;SDS011;48717;55.556;37.816;2023-05-29T13:20:28;8.25;;;1.70;;
62654;SDS011;48717;55.556;37.816;2023-05-29T13:22:57;12.77;;;2.10;;
62654;SDS011;48717;55.556;37.816;2023-05-29T13:25:24;6.53;;;1.90;;
62654;SDS011;48717;55.556;37.816;2023-05-29T13:27:53;5.60;;;1.47;;
62654;SDS011;48717;55.556;37.816;2023-05-29T13:30:20;7.57;;;1.70;;
62654;SDS011;48717;55.556;37.816;2023-05-29T13:32:50;2.65;;;1.63;;
62654;SDS011;48717;55.556;37.816;2023-05-29T13:35:19;3.00;;;1.58;;
62654;SDS011;48717;55.556;37.816;2023-05-29T13:37:47;2.22;;;1.50;;
62654;SDS011;48717;55.556;37.816;2023-05-29T13:40:14;11.38;;;4.93;;
62654;SDS011;48717;55.556;37.816;2023-05-29T13:42:42;4.25;;;1.50;;
62654;SDS011;48717;55.556;37.816;2023-05-29T13:45:09;4.25;;;1.73;;
62654;SDS011;48717;55.556;37.816;2023-05-29T13:47:38;9.10;;;2.22;;
62654;SDS011;48717;55.556;37.816;2023-05-29T13:50:06;2.75;;;1.40;;
62654;SDS011;48717;55.556;37.816;2023-05-29T13:52:35;1.75;;;1.40;;
62654;SDS011;48717;55.556;37.816;2023-05-29T13:55:02;4.20;;;1.55;;
62654;SDS011;48717;55.556;37.816;2023-05-29T13:57:35;3.33;;;1.25;;
62654;SDS011;48717;55.556;37.816;2023-05-29T14:00:04;3.72;;;1.50;;
62654;SDS011;48717;55.556;37.816;2023-05-29T14:02:36;2.60;;;1.50;;
62654;SDS011;48717;55.556;37.816;2023-05-29T14:05:04;7.32;;;2.10;;
62654;SDS011;48717;55.556;37.816;2023-05-29T14:07:32;5.18;;;2.30;;
62654;SDS011;48717;55.556;37.816;2023-05-29T14:10:00;8.40;;;5.38;;
62654;SDS011;48717;55.556;37.816;2023-05-29T14:12:31;4.45;;;1.70;;
62654;SDS011;48717;55.556;37.816;2023-05-29T14:14:58;6.97;;;1.73;;
62654;SDS011;48717;55.556;37.816;2023-05-29T14:17:25;5.03;;;1.95;;
62654;SDS011;48717;55.556;37.816;2023-05-29T14:19:53;9.20;;;1.88;;
62654;SDS011;48717;55.556;37.816;2023-05-29T14:22:20;36.90;;;32.60;;
62654;SDS011;48717;55.556;37.816;2023-05-29T14:24:47;19.40;;;3.47;;
62654;SDS011;48717;55.556;37.816;2023-05-29T14:27:14;6.72;;;2.15;;
62654;SDS011;48717;55.556;37.816;2023-05-29T14:29:41;11.52;;;2.65;;
62654;SDS011;48717;55.556;37.816;2023-05-29T14:32:08;11.40;;;1.70;;
62654;SDS011;48717;55.556;37.816;2023-05-29T14:34:36;3.42;;;1.50;;
62654;SDS011;48717;55.556;37.816;2023-05-29T14:37:03;1.80;;;1.50;;
62654;SDS011;48717;55.556;37.816;2023-05-29T14:39:30;2.92;;;1.30;;
62654;SDS011;48717;55.556;37.816;2023-05-29T14:41:57;2.80;;;1.60;;
62654;SDS011;48717;55.556;37.816;2023-05-29T14:44:24;7.88;;;2.20;;
62654;SDS011;48717;55.556;37.816;2023-05-29T14:46:51;1.52;;;1.20;;
62654;SDS011;48717;55.556;37.816;2023-05-29T14:49:19;6.38;;;1.70;;
62654;SDS011;48717;55.556;37.816;2023-05-29T14:51:46;4.60;;;1.40;;
62654;SDS011;48717;55.556;37.816;2023-05-29T14:54:13;2.78;;;1.58;;
62654;SDS011;48717;55.556;37.816;2023-05-29T14:56:41;3.20;;;1.70;;
62654;SDS011;48717;55.556;37.816;2023-05-29T14:59:08;4.18;;;1.60;;
62654;SDS011;48717;55.556;37.816;2023-05-29T15:01:35;4.35;;;1.42;;
62654;SDS011;48717;55.556;37.816;2023-05-29T15:04:02;5.13;;;1.33;;
62654;SDS011;48717;55.556;37.816;2023-05-29T15:06:30;5.43;;;2.45;;
62654;SDS011;48717;55.556;37.816;2023-05-29T15:08:59;4.32;;;1.80;;
62654;SDS011;48717;55.556;37.816;2023-05-29T15:11:28;5.72;;;1.42;;
62654;SDS011;48717;55.556;37.816;2023-05-29T15:16:25;1.73;;;1.33;;
62654;SDS011;48717;55.556;37.816;2023-05-29T15:18:52;4.72;;;1.80;;
62654;SDS011;48717;55.556;37.816;2023-05-29T15:21:19;2.78;;;1.40;;
62654;SDS011;48717;55.556;37.816;2023-05-29T15:23:46;3.03;;;1.40;;
62654;SDS011;48717;55.556;37.816;2023-05-29T15:26:13;4.57;;;1.73;;
62654;SDS011;48717;55.556;37.816;2023-05-29T15:28:40;3.00;;;1.55;;
62654;SDS011;48717;55.556;37.816;2023-05-29T15:31:07;3.50;;;1.80;;
62654;SDS011;48717;55.556;37.816;2023-05-29T15:33:35;3.90;;;1.80;;
62654;SDS011;48717;55.556;37.816;2023-05-29T15:36:02;3.38;;;1.70;;